Tiempo atmosférico en la estación meteorológica de Carrión De Los Condes, Palencia (830 m.)



Fecha
DESCASC
Temp. máxima en grados centígrados (hora)
DESCASC
Temp. mínima en grados centígrados (hora)
DESCASC
Temp. media en grados centígrados
DESCASC
Racha de viento máxima en m/sg (hora)
DESCASC
Velocidad máxima media en intervalos de 10 minutos(hora)
DESCASC
Precipitaciones diarias en mm
DESCASC
Precipitaciones de 00:00 a 06:00 en mm
DESCASC
Precipitaciones de 06:00 a 12:00 en mm
DESCASC
Precipitaciones de 12:00 a 18:00 en mm
DESCASC
Precipitaciones de 18:00 a 24:00 en mm
DESCASC
22-04-2019 17.9 (16:50) 6.1 (02:30) 12 8.06 (16:50) 3.33 (14:30) 0 0 0 0 0
21-04-2019 15.7 (13:20) 2.8 (07:50) 9.2 12.5 (17:10) 5.28 (17:10) 0 0 0 0 0
20-04-2019 19.6 (15:40) 9.3 (06:50) 14.5 15.28 (16:40) 7.5 (16:40) 0 0 0 0 0
19-04-2019 14 (16:40) 8.1 (06:40) 11.1 12.78 (20:10) 5.28 (20:10) 4.8 4.6 0.2 0 0
18-04-2019 11.5 (00:00) 8.3 (00:00) 9.9 8.06 (02:40) 4.44 (02:40) 9.2 3.4 0.2 2.6 3
17-04-2019 19.6 (18:30) 5 (00:00) 12.3 15.83 (20:10) 7.5 (20:10) 0.6 0 0 0 0.6
16-04-2019 18.9 (17:30) 4 (00:00) 11.4 6.67 (18:10) 3.06 (18:10) 0 0 0 0 0
15-04-2019 20.9 (14:10) 7.4 (00:00) 14.1 13.89 (11:10) 6.11 (13:50) 1.8 0 0 1.8 0
14-04-2019 21.3 (16:10) 7.4 (00:00) 14.3 15.83 (20:00) 3.33 (11:40) 0 0 0 0 0
13-04-2019 20.1 (18:20) -0.4 (00:00) 9.9 16.11 (13:50) 2.78 (13:20) 0 0 0 0 0
12-04-2019 15.8 (18:30) -1.2 (-00:0) 7.3 15.83 (20:50) 2.22 (14:50) 0 0 0 0 0
11-04-2019 13.7 (15:30) -1.2 (-00:0) 6.2 17.78 (09:00) 3.61 (20:30) 0 0 0 0 0
10-04-2019 12.3 (17:00) 1 (00:00) 6.7 13.61 (20:30) 4.17 (17:40) 2.6 0 0.4 2.2 0
09-04-2019 13.5 (18:30) 2.5 (00:00) 8 10.28 (11:30) 4.44 (10:40) 2.4 0 1.4 1 0
08-04-2019 14.9 (18:00) 4.1 (00:00) 9.5 11.67 (18:40) 4.72 (05:20) 4.6 4.2 0.4 0 0
07-04-2019 13.2 (16:20) -1.8 (-00:0) 5.7 10.56 (18:40) 5.28 (18:00) 3.6 0 0 0 3.6
06-04-2019 8.9 (16:00) 1.3 (00:00) 5.1 15.83 (09:40) 6.11 (11:50) 2.4 0 0.6 1.8 0
05-04-2019 11 (18:10) 2.1 (00:00) 6.5 10.28 (04:20) 5 (04:20) 4 3.4 0.6 0 0
04-04-2019 12.3 (17:20) -4.2 (-00:0) 4.1 13.61 (16:00) 6.11 (16:00) 2.8 0 0 0 2.8
03-04-2019 12.6 (15:30) -0.6 (23:59) 6 15.28 (17:10) 6.67 (16:20) 0 0 0 0 0
02-04-2019 18.1 (17:50) 4.1 (00:00) 11.1 8.33 (21:00) 3.89 (21:10) 0 0 0 0 0
01-04-2019 17.7 (16:50) -0.6 (-00:0) 8.6 6.67 (20:20) 2.78 (23:59) 0 0 0 0 0
31-03-2019 18.3 (16:00) 3.3 (00:00) 10.8 10.28 (19:20) 3.61 (14:40) 0 0 0 0 0
30-03-2019 19.1 (15:30) 0.5 (00:00) 9.8 7.5 (22:50) 3.06 (22:50) 0 0 0 0 0
29-03-2019 19.7 (16:00) 0 (00:00) 9.9 8.06 (12:40) 3.61 (11:10) 0 0 0 0 0
28-03-2019 17.6 (16:00) 1.4 (00:00) 9.5 11.39 (10:40) 5.56 (10:40) 0 0 0 0 0
27-03-2019 17.3 (15:50) 2.3 (00:00) 9.8 14.17 (14:20) 6.94 (14:40) 0 0 0 0 0
26-03-2019 15.8 (15:00) 2.7 (00:00) 9.3 18.33 (12:50) 8.06 (11:20) 0 0 0 0 0
25-03-2019 13.1 (15:40) 2.3 (00:00) 7.7 15.83 (23:50) 6.94 (16:30) 0 0 0 0 0

Gráficas

Temp. máximas Temp. mínimas Temp. medias Precipitaciones Rachas de viento máximas Velocidades máximas media en intervalos de 10 minutos

Datos horarios

Fecha y hora oficial Temperatura (ºC) Velocidad del viento (km/h) Dirección del viento Racha (km/h) Dirección de racha Precipitación (mm) Presión (hPa) Tendencia (hPa) Humedad (%)
2019-04-23 23:00:00 5.7 10 Sudoeste 26 Sudoeste 0 905.8 2.5 78
2019-04-23 22:00:00 5.8 5 Sudoeste 17 Sudoeste 0 905 2 73
2019-04-23 21:00:00 7.6 4 Oeste 21 Noroeste 0 904.1 2.3 58
2019-04-23 20:00:00 9.4 5 Oeste 27 Sudoeste 0 903.3 1.5 54
2019-04-23 19:00:00 11.1 4 Oeste 36 Sudoeste 0 903 0.6 57
2019-04-23 18:00:00 12 10 Sudoeste 42 Sudoeste 0 901.8 -1 49
2019-04-23 17:00:00 13 12 Sudoeste 37 Sudoeste 0 901.8 -1.4 40
2019-04-23 16:00:00 12.2 17 Sudoeste 33 Sudoeste 0 902.4 -0.6 48
2019-04-23 15:00:00 10.3 12 Sudoeste 32 Sudoeste 0 902.8 0.2 54
2019-04-23 14:00:00 8.9 14 Sudoeste 33 Sudoeste 0 903.2 0.7 60
2019-04-23 13:00:00 9.1 12 Sudoeste 33 Sudoeste 0 903 0.7 66
2019-04-23 12:00:00 9.8 12 Sudoeste 31 Sudoeste 0 902.6 0.6 68
2019-04-23 11:00:00 7.4 7 Sudoeste 25 Sudoeste 0 902.5 0.9 82
2019-04-23 10:00:00 6.2 9 Sudoeste 23 Sudoeste 0 902.3 1 85
2019-04-23 09:00:00 6.4 10 Sudoeste 24 Sudoeste 0 902 0.6 89
2019-04-23 08:00:00 6.2 3 Sudoeste 24 Oeste 0.2 901.6 -0.4 91
2019-04-23 07:00:00 7.2 5 Sudoeste 28 Sudoeste 0.4 901.3 -0.9 85
2019-04-23 06:00:00 8.5 7 Sudoeste 21 Sudoeste 0.2 901.4 -1.6 93
2019-04-23 05:00:00 9.1 6 Sur 15 Sur 0.4 902 -1.4 94
2019-04-23 04:00:00 9.1 0 Calma 12 Sudoeste 0.6 902.2 -1.2 92
2019-04-23 03:00:00 9.5 4 Oeste 12 Noroeste 0.6 903 -0.4 86
2019-04-23 02:00:00 10.3 2 Sudoeste 18 Noroeste 0 903.4 -0.3 78
2019-04-23 01:00:00 11.4 6 Sudoeste 22 Sudoeste 0 903.4 -0.3 69
2019-04-23 00:00:00 11.7 10 Sudoeste 17 Sudoeste 0 903.4 -0.4 65
2019-04-22 23:00:00 11.8 5 Sur 15 Sur 0 903.7 -0.4 63
2019-04-22 22:00:00 12.6 5 Sudeste 13 Sudeste 0 903.7 -0.9 55
2019-04-22 21:00:00 13.4 5 Sur 18 Sur 0 903.8 -1.4 51
2019-04-22 20:00:00 15 7 Sur 22 Sudoeste 0 904.1 -1.6 47
2019-04-22 19:00:00 16.4 8 Sudoeste 23 Sudoeste 0 904.6 -1.8 45
2019-04-22 18:00:00 16.4 10 Sudoeste 25 Sudoeste 0 905.2 -1.9 44
2019-04-22 17:00:00 17.9 9 Sudoeste 29 Sudoeste 0 905.7 -2.4 39
2019-04-22 16:00:00 16.6 10 Sudoeste 23 Sudoeste 0 906.4 -2.7 43
2019-04-22 15:00:00 15.8 6 Sur 23 Sur 0 907.1 -2.8 44
2019-04-22 14:00:00 15.4 9 Sudoeste 23 Sur 0 908.1 -2.2 48
2019-04-22 13:00:00 14.3 7 Sur 19 Sur 0 909.1 -1.6 52
2019-04-22 12:00:00 13.4 7 Sudoeste 20 Sudoeste 0 909.9 -1 58
2019-04-22 11:00:00 11.3 6 Sudoeste 15 Noroeste 0 910.3 -0.7 66
2019-04-22 10:00:00 9.1 2 Oeste 15 Oeste 0 910.7 -0.5 80
2019-04-22 09:00:00 7.7 3 Noroeste 5 Noroeste 0 910.9 -1.1 90
2019-04-22 08:00:00 7.2 2 Oeste 4 Noroeste 0 911 -1.7 92
2019-04-22 07:00:00 7.3 0 Calma 6 Noroeste 0 911.2 -2.3 90
2019-04-22 06:00:00 7.4 3 Noroeste 10 Norte 0 912 -2.3 89
2019-04-22 05:00:00 7.2 5 Nordeste 12 Nordeste 0 912.7 -2.4 92
2019-04-22 04:00:00 7.2 5 Nordeste 12 Nordeste 0 913.5 -2.1 92
2019-04-22 03:00:00 6.5 5 Nordeste 16 Nordeste 0 914.3 -2 95
2019-04-22 02:00:00 6.6 6 Nordeste 17 Nordeste 0 915.1 -1.4 90
2019-04-22 01:00:00 6.8 6 Nordeste 21 Nordeste 0 915.6 -1 86
2019-04-22 00:00:00 7.7 6 Nordeste 18 Nordeste 0 916.3 -0.1 82
2019-04-21 23:00:00 8.9 8 Nordeste 18 Nordeste 0 916.5 0.1 79
2019-04-21 22:00:00 9.6 7 Nordeste 27 Nordeste 0 916.6 0 76
2019-04-21 21:00:00 10.5 9 Nordeste 32 Nordeste 0 916.4 -0.4 70
2019-04-21 20:00:00 11.1 14 Nordeste 31 Nordeste 0 916.4 -0.7 68
2019-04-21 19:00:00 11.6 9 Nordeste 28 Norte 0 916.6 -1.1 69
2019-04-21 18:00:00 12.6 11 Nordeste 45 Nordeste 0 916.8 -1.3 60
2019-04-21 17:00:00 14.3 16 Nordeste 39 Nordeste 0 917.1 -1.8 49
2019-04-21 16:00:00 14.4 17 Nordeste 42 Nordeste 0 917.7 -1.9 48
2019-04-21 15:00:00 14.3 18 Nordeste 40 Nordeste 0 918.1 -2.2 45
2019-04-21 14:00:00 14.5 15 Nordeste 34 Nordeste 0 918.9 -1.9 45
2019-04-21 13:00:00 14.7 15 Nordeste 41 Nordeste 0 919.6 -1.7 43
2019-04-21 12:00:00 13 7 Este 22 Nordeste 0 920.3 -0.8 58
2019-04-21 11:00:00 11.4 9 Este 22 Este 0 920.8 -0.5 66
2019-04-21 10:00:00 8.7 9 Este 23 Sudeste 0 921.3 -0.1 79
2019-04-21 09:00:00 6.4 6 Nordeste 14 Nordeste 0 921.1 -0.5 87
2019-04-21 08:00:00 2.9 2 Norte 5 Norte 0 921.3 -1 95
2019-04-21 07:00:00 3.6 4 Norte 6 Norte 0 921.4 -1.2 92
2019-04-21 06:00:00 4.3 4 Norte 8 Nordeste 0 921.6 -1.7 86
2019-04-21 05:00:00 5.6 5 Nordeste 12 Nordeste 0 922.3 -1.5 82
2019-04-21 04:00:00 7.8 6 Nordeste 33 Nordeste 0 922.6 -1.3 74
2019-04-21 03:00:00 9.1 11 Nordeste 31 Nordeste 0 923.3 -0.6 70
2019-04-21 02:00:00 9.3 9 Nordeste 25 Nordeste 0 923.8 -0.3 65
2019-04-21 01:00:00 9.6 11 Nordeste 33 Norte 0 923.9 0.1 62
2019-04-21 00:00:00 10 15 Nordeste 34 Nordeste 0 923.9 0.4 60
2019-04-20 23:00:00 10.9 14 Nordeste 33 Nordeste 0 924.1 0.7 60
2019-04-20 22:00:00 11.9 12 Nordeste 40 Nordeste 0 923.8 0.4 55
2019-04-20 21:00:00 13.4 14 Nordeste 40 Nordeste 0 923.5 0.1 48
2019-04-20 20:00:00 15.7 17 Nordeste 45 Norte 0 923.4 -0.2 40
2019-04-20 19:00:00 17.9 18 Nordeste 49 Norte 0 923.4 -0.8 38
2019-04-20 18:00:00 18.6 23 Nordeste 50 Nordeste 0 923.4 -1.4 33
2019-04-20 17:00:00 19.1 26 Nordeste 55 Norte 0 923.6 -1.9 32
2019-04-20 16:00:00 19.4 24 Nordeste 49 Nordeste 0 924.2 -1.6 32
2019-04-20 15:00:00 19.1 21 Nordeste 51 Nordeste 0 924.8 -1.5 31
2019-04-20 14:00:00 18.8 16 Nordeste 50 Este 0 925.5 -0.8 35
2019-04-20 13:00:00 17.9 19 Nordeste 53 Nordeste 0 925.8 -0.7 40
2019-04-20 12:00:00 16.8 17 Nordeste 47 Nordeste 0 926.3 -0.1 45
2019-04-20 11:00:00 14.9 16 Nordeste 39 Nordeste 0 926.3 0.1 60
2019-04-20 10:00:00 13.2 14 Nordeste 42 Nordeste 0 926.5 0.4 73
2019-04-20 09:00:00 11.6 18 Nordeste 36 Nordeste 0 926.4 -0.3 75
2019-04-20 08:00:00 9.4 12 Nordeste 30 Nordeste 0 926.2 -1 81
2019-04-20 07:00:00 9.4 14 Nordeste 33 Nordeste 0 926.1 -1.2 81
2019-04-20 06:00:00 9.5 14 Nordeste 30 Norte 0 926.7 -0.9 72
2019-04-20 05:00:00 9.7 14 Nordeste 32 Nordeste 0 927.2 -0.6 74
2019-04-20 04:00:00 10.7 16 Nordeste 33 Nordeste 0 927.3 -0.6 67
2019-04-20 03:00:00 10.5 12 Nordeste 27 Norte 0 927.6 -0.4 72
2019-04-20 02:00:00 10.5 11 Norte 26 Norte 0 927.8 0.3 75
2019-04-20 01:00:00 11 13 Nordeste 25 Nordeste 0 927.9 0.9 76
2019-04-20 00:00:00 11.5 11 Nordeste 27 Nordeste 0 928 1.9 76
2019-04-19 23:00:00 12 12 Nordeste 29 Nordeste 0 927.5 2.2 71
2019-04-19 22:00:00 12.4 15 Nordeste 37 Nordeste 0 927 2 69
2019-04-19 21:00:00 12.8 16 Nordeste 46 Nordeste 0 926.1 1.4 65
2019-04-19 20:00:00 13.2 16 Nordeste 43 Nordeste 0 925.3 0.5 60
2019-04-19 19:00:00 13 14 Nordeste 37 Nordeste 0 925 0 67
2019-04-19 18:00:00 13.4 12 Nordeste 30 Nordeste 0 924.7 -0.3 69
2019-04-19 17:00:00 13.8 14 Nordeste 35 Nordeste 0 924.8 0.4 69
2019-04-19 16:00:00 11.5 9 Este 28 Este 0 925 0.5 79
2019-04-19 15:00:00 11.4 12 Este 32 Nordeste 0 925 0.9 78
2019-04-19 14:00:00 11.5 13 Este 35 Este 0 924.4 0.9 79
2019-04-19 13:00:00 11.2 14 Este 38 Este 0 924.5 1.5 79
2019-04-19 12:00:00 10.5 16 Nordeste 33 Nordeste 0 924.1 2 81
2019-04-19 11:00:00 10.3 13 Este 32 Nordeste 0 923.5 1.9 83
2019-04-19 10:00:00 8.7 13 Nordeste 36 Nordeste 0 923 2.4 90
2019-04-19 09:00:00 8.4 14 Nordeste 38 Nordeste 0 922.1 1.7 94
2019-04-19 08:00:00 8.2 8 Nordeste 23 Nordeste 0.2 921.6 1.6 96
2019-04-19 07:00:00 8.1 9 Nordeste 23 Este 0 920.6 0.7 95
2019-04-19 06:00:00 8.3 8 Este 23 Este 0 920.4 0.9 95
2019-04-19 05:00:00 8.4 8 Este 22 Este 0.4 920 0.6 95
2019-04-19 04:00:00 8.7 10 Este 32 Nordeste 1.2 919.9 0.3 95
2019-04-19 03:00:00 8.9 12 Este 32 Nordeste 1 919.5 -0.5 94
2019-04-19 02:00:00 8.7 12 Nordeste 26 Nordeste 0.6 919.4 -0.5 95
2019-04-19 01:00:00 8.3 8 Nordeste 19 Nordeste 1.4 919.6 0 96
2019-04-19 00:00:00 8.4 10 Nordeste 28 Nordeste 1.4 920 0.9 95
2019-04-18 23:00:00 9.1 12 Nordeste 25 Nordeste 0 919.9 0.8 89
2019-04-18 22:00:00 9.1 8 Norte 19 Nordeste 0 919.6 0.6 95
2019-04-18 21:00:00 8.8 8 Norte 17 Norte 0 919.1 0.4 94
2019-04-18 20:00:00 8.9 6 Nordeste 19 Norte 0.8 919.1 0.5 95
2019-04-18 19:00:00 9 8 Nordeste 16 Nordeste 0.8 919 0.1 93
2019-04-18 18:00:00 9 8 Nordeste 23 Nordeste 0.8 918.7 -0.6 86
2019-04-18 17:00:00 9.4 8 Nordeste 22 Norte 0.2 918.6 -1.2 81
2019-04-18 16:00:00 10 8 Nordeste 22 Nordeste 0.2 918.9 -1.1 81
2019-04-18 15:00:00 10.2 8 Este 24 Este 0.6 919.3 -0.4 84
2019-04-18 14:00:00 9.5 13 Sudeste 26 Sudeste 0.8 919.8 0 85
2019-04-18 13:00:00 10.1 8 Este 20 Sudeste 0 920 0.4 81
2019-04-18 12:00:00 10 8 Este 23 Sudeste 0 919.7 0.5 82
2019-04-18 11:00:00 9.5 11 Sudeste 21 Sudeste 0 919.8 0.7 87
2019-04-18 10:00:00 8.8 7 Sudeste 19 Sudeste 0 919.6 1.5 96
2019-04-18 09:00:00 8.5 5 Sudeste 12 Sudeste 0 919.2 1.2 97
2019-04-18 08:00:00 8.4 6 Sudeste 10 Sudeste 0 919.1 1.2 97
2019-04-18 07:00:00 8.5 3 Sur 9 Sur 0.2 918.1 0.3 96
2019-04-18 06:00:00 8.6 4 Sur 13 Sudoeste 0.4 918 0 96
2019-04-18 05:00:00 8.5 5 Sudoeste 17 Sudoeste 0.6 917.9 0.4 96
2019-04-18 04:00:00 8.5 9 Sudoeste 22 Sudoeste 0.6 917.8 0.4 95
2019-04-18 03:00:00 8.9 13 Sudoeste 29 Sudoeste 1.8 918 0.7 86
2019-04-18 02:00:00 10.2 4 Sudoeste 11 Sudoeste 0 917.5 1.2 82
2019-04-18 01:00:00 10.2 2 Sudoeste 9 Oeste 0 917.4 1.3 82
2019-04-18 00:00:00 11.5 4 Sudoeste 20 Sudoeste 0 917.3 1.8 79
2019-04-17 23:00:00 12.4 7 Este 24 Este 0.2 916.3 0.7 82
2019-04-17 22:00:00 13.8 10 Sudeste 33 Sudeste 0.2 916.1 1.2 73
2019-04-17 21:00:00 14.2 7 Sudeste 57 Sur 0.2 915.5 1.3 67
2019-04-17 20:00:00 17.1 14 Sur 51 Sur 0 915.6 0.9 51
2019-04-17 19:00:00 18.7 14 Sur 37 Sur 0 914.9 -0.8 37
2019-04-17 18:00:00 19 15 Sur 34 Sur 0 914.2 -2 34
2019-04-17 17:00:00 17.1 10 Este 23 Sudeste 0 914.7 -2.1 49
2019-04-17 16:00:00 16.8 9 Sudeste 18 Sudeste 0 915.7 -1.3 51
2019-04-17 15:00:00 16.8 6 Sur 22 Sudoeste 0 916.2 -0.8 49
2019-04-17 14:00:00 16.7 14 Sur 29 Sudoeste 0 916.8 -0.4 48
2019-04-17 13:00:00 15.2 8 Sudeste 23 Sudeste 0 917 -0.4 59
2019-04-17 12:00:00 13.8 9 Sudeste 22 Este 0 917 -0.4 64
2019-04-17 11:00:00 12.6 10 Sudeste 22 Este 0 917.2 0 70
2019-04-17 10:00:00 10.3 6 Este 17 Este 0 917.4 0.3 79
2019-04-17 09:00:00 7.4 3 Este 11 Este 0 917.4 0.2 91
2019-04-17 08:00:00 5 3 Nordeste 9 Nordeste 0 917.2 -0.2 86
2019-04-17 07:00:00 5.4 2 Nordeste 8 Este 0 917.1 -0.8 85
2019-04-17 06:00:00 6.1 2 Nordeste 13 Este 0 917.2 -0.9 83
2019-04-17 05:00:00 6.2 3 Este 9 Este 0 917.4 -1.6 83
2019-04-17 04:00:00 7.1 5 Nordeste 15 Este 0 917.9 -1.4 79
2019-04-17 03:00:00 8.3 4 Nordeste 15 Este 0 918.1 -1.4 76
2019-04-17 02:00:00 9 4 Nordeste 12 Nordeste 0 919 -0.8 79
2019-04-17 01:00:00 9.1 4 Nordeste 13 Este 0 919.3 -0.5 77
2019-04-17 00:00:00 10.2 6 Nordeste 17 Nordeste 0 919.5 -0.3 68
2019-04-16 23:00:00 10.4 7 Nordeste 14 Nordeste 0 919.8 -0.2 61
2019-04-16 22:00:00 10.9 3 Nordeste 10 Nordeste 0 919.8 -0.6 66
2019-04-16 21:00:00 13.7 4 Norte 9 Norte 0 919.8 -1.1 58
2019-04-16 20:00:00 16.3 3 Este 19 Sudeste 0 920 -1.3 38
2019-04-16 19:00:00 17.8 4 Sudeste 24 Sudoeste 0 920.4 -1.7 30
2019-04-16 18:00:00 18.7 8 Sur 22 Sudoeste 0 920.9 -1.7 28
2019-04-16 17:00:00 18 8 Sur 19 Sudoeste 0 921.3 -2 32
2019-04-16 16:00:00 18 8 Sudoeste 23 Sudoeste 0 922.1 -1.4 30
2019-04-16 15:00:00 16.7 7 Sur 20 Sur 0 922.6 -1.3 34
2019-04-16 14:00:00 15.6 6 Sur 20 Sudeste 0 923.3 -1 41
2019-04-16 13:00:00 14.4 5 Sur 17 Sudeste 0 923.5 -0.8 47
2019-04-16 12:00:00 12.4 5 Nordeste 13 Sudeste 0 923.9 -0.4 62
2019-04-16 11:00:00 10.9 6 Sudeste 14 Sudeste 0 924.3 0.3 68
2019-04-16 10:00:00 8.3 6 Este 16 Este 0 924.3 0.6 78
2019-04-16 09:00:00 4.8 3 Este 15 Este 0 924.3 1 97
2019-04-16 08:00:00 4.1 0 Calma 14 Oeste 0 924 1 96
2019-04-16 07:00:00 4.6 2 Sudeste 7 Sudeste 0 923.7 0.4 95
2019-04-16 06:00:00 5.6 4 Este 18 Nordeste 0 923.3 0.3 92
2019-04-16 05:00:00 6.8 9 Este 19 Este 0 923 0.2 90
2019-04-16 04:00:00 6.3 4 Nordeste 12 Este 0 923.3 0.9 95
2019-04-16 03:00:00 6.1 4 Este 15 Sudeste 0 923 1 95
2019-04-16 02:00:00 5 0 Calma 10 Norte 0 922.8 1.4 85
2019-04-16 01:00:00 6.4 0 Calma 8 Sudoeste 0 922.4 1.9 83
2019-04-16 00:00:00 7.4 3 Sudoeste 10 Noroeste 0 922 2.6 77
2019-04-15 23:00:00 9.9 2 Noroeste 10 Oeste 0 921.4 2.9 69
2019-04-15 22:00:00 11.1 2 Sudoeste 12 Oeste 0 920.5 3 66
2019-04-15 21:00:00 12.1 2 Noroeste 16 Sudoeste 0 919.4 2.8 60
2019-04-15 20:00:00 14.5 6 Oeste 29 Oeste 0 918.5 2.4 52
2019-04-15 19:00:00 15.2 6 Oeste 27 Oeste 0 917.5 1.8 55
2019-04-15 18:00:00 18.2 7 Oeste 39 Oeste 0 916.6 1.1 46
2019-04-15 17:00:00 19.1 8 Oeste 37 Sudoeste 0 916.1 1 46
2019-04-15 16:00:00 19 8 Sudoeste 36 Sudoeste 0 915.7 -0.4 47
2019-04-15 15:00:00 16.9 5 Sudoeste 48 Sudoeste 1.8 915.5 -1.2 74
2019-04-15 14:00:00 20.8 21 Sudoeste 47 Sudoeste 0 915.1 -1.8 47
2019-04-15 13:00:00 19.7 14 Sur 36 Sudoeste 0 916.1 -1.4 54
2019-04-15 12:00:00 19.5 14 Sur 50 Sudoeste 0 916.7 -1.3 57
2019-04-15 11:00:00 15.7 6 Sur 18 Sudeste 0 916.9 -1.5 68
2019-04-15 10:00:00 13 3 Este 18 Este 0 917.5 -1.1 77
2019-04-15 09:00:00 10.3 2 Este 13 Norte 0 918 -0.9 88
2019-04-15 08:00:00 9.1 0 Calma 8 Este 0 918.4 -1 94
2019-04-15 07:00:00 10.3 2 Este 6 Este 0 918.6 -1.4 87
2019-04-15 06:00:00 10.6 2 Este 7 Nordeste 0 918.9 -1.4 92
2019-04-15 05:00:00 10 0 Calma 5 Noroeste 0 919.4 -1.6 92
2019-04-15 04:00:00 10.4 2 Noroeste 4 Oeste 0 920 -1.4 93
2019-04-15 03:00:00 10.3 2 Este 8 Noroeste 0 920.3 -1.2 88
2019-04-15 02:00:00 10.1 3 Sudeste 5 Este 0 921 -0.7 86
2019-04-15 01:00:00 11 0 Calma 4 Este 0 921.4 -0.3 84
2019-04-15 00:00:00 11.5 0 Calma 2 Norte 0 921.5 0.2 81
2019-04-14 23:00:00 13.1 0 Calma 4 Oeste 0 921.7 0.6 75
2019-04-14 22:00:00 14.3 0 Calma 8 Oeste 0 921.7 0.5 73
2019-04-14 21:00:00 17.1 0 Calma 17 Sudeste 0 921.3 -0.1 56
2019-04-14 20:00:00 19.2 6 Sur 57 Este 0 921.1 -0.7 48
2019-04-14 19:00:00 20.4 5 Sudoeste 18 Sudoeste 0 921.2 -1.3 43
2019-04-14 18:00:00 21 8 Sudoeste 20 Sudoeste 0 921.4 -1.4 42
2019-04-14 17:00:00 21 6 Sur 18 Sudoeste 0 921.8 -1 43
2019-04-14 16:00:00 21.1 6 Sur 23 Sudoeste 0 922.5 -0.5 44
2019-04-14 15:00:00 19 6 Sudoeste 20 Sudoeste 0 922.8 -0.3 49
2019-04-14 14:00:00 19 7 Sudoeste 20 Sudoeste 0 922.8 -0.5 50
2019-04-14 13:00:00 18.2 7 Oeste 25 Sur 0 923 -0.3 54
2019-04-14 12:00:00 16.3 11 Sudoeste 23 Sudoeste 0 923.1 0.3 63
2019-04-14 11:00:00 13.9 4 Oeste 16 Oeste 0 923.3 0.6 73
2019-04-14 10:00:00 11.7 3 Noroeste 21 Oeste 0 923.3 0.9 81
2019-04-14 09:00:00 8.8 0 Calma 17 Sur 0 922.8 0.4 95
2019-04-14 08:00:00 7.5 3 Oeste 16 Sudoeste 0 922.7 -0.1 91
2019-04-14 07:00:00 8.1 4 Sudoeste 5 Sudoeste 0 922.4 0 85
2019-04-14 06:00:00 8.8 3 Sur 6 Sudoeste 0 922.4 -0.4 82
2019-04-14 05:00:00 9.9 2 Sudoeste 9 Oeste 0 922.8 -0.1 78
2019-04-14 04:00:00 11.2 2 Norte 11 Sudoeste 0 922.4 -0.7 74
2019-04-14 03:00:00 11.3 2 Noroeste 14 Oeste 0 922.8 -0.5 73
2019-04-14 02:00:00 10.6 0 Calma 9 Oeste 0 922.9 -0.6 74
2019-04-14 01:00:00 10.1 0 Calma 9 Oeste 0 923.1 -0.1 72
2019-04-14 00:00:00 11 3 Sudoeste 11 Sudoeste 0 923.3 0.6 68
2019-04-13 23:00:00 11.3 4 Sudoeste 12 Sudoeste 0 923.5 0.7 62
2019-04-13 22:00:00 12.9 4 Sudoeste 8 Sudoeste 0 923.2 0.6 53
2019-04-13 21:00:00 15.4 5 Sudoeste 17 Sur 0 922.7 -0.1 42
2019-04-13 20:00:00 17.7 6 Sudoeste 18 Sudoeste 0 922.8 -0.5 32
2019-04-13 19:00:00 19.8 6 Sudoeste 24 Sudoeste 0 922.6 -0.9 25
2019-04-13 18:00:00 19.2 7 Sudoeste 22 Sudoeste 0 922.8 -1.2 27
2019-04-13 17:00:00 19.4 6 Oeste 21 Sudoeste 0 923.3 -1 29
2019-04-13 16:00:00 19.8 5 Oeste 21 Sur 0 923.5 -1.3 28
2019-04-13 15:00:00 18.7 8 Sudoeste 26 Sudoeste 0 924 -1.1 33
2019-04-13 14:00:00 17.3 8 Sudoeste 58 Oeste 0 924.3 -1 39
2019-04-13 13:00:00 15.9 8 Sur 18 Sudoeste 0 924.8 -0.6 37
2019-04-13 12:00:00 14 8 Sudoeste 18 Oeste 0 925.1 0 40
2019-04-13 11:00:00 11.4 4 Sur 10 Sudoeste 0 925.3 0.4 55
2019-04-13 10:00:00 7.7 2 Sudoeste 6 Oeste 0 925.4 0.9 72
2019-04-13 09:00:00 2.1 2 Sur 13 Nordeste 0 925.1 0.8 99
2019-04-13 08:00:00 0.3 0 Calma 14 Noroeste 0 924.9 0.5 98
2019-04-13 07:00:00 -0.2 0 Calma 3 Este 0 924.5 0 97
2019-04-13 06:00:00 0 0 Calma 3 Norte 0 924.3 -0.5 96
2019-04-13 05:00:00 0.5 0 Calma 2 Noroeste 0 924.4 -1 95
2019-04-13 04:00:00 1.1 0 Calma 3 Noroeste 0 924.5 -0.5 92
2019-04-13 03:00:00 1.9 2 Norte 4 Norte 0 924.8 -0.1 87
2019-04-13 02:00:00 2.7 0 Calma 5 Nordeste 0 925.4 0.5 85
2019-04-13 01:00:00 3.5 2 Nordeste 9 Este 0 925 0.8 80
2019-04-13 00:00:00 4.7 4 Este 9 Este 0 924.9 1.3 75
2019-04-12 23:00:00 5.6 4 Este 9 Este 0 924.9 1.5 73
2019-04-12 22:00:00 7.8 2 Noroeste 3 Noroeste 0 924.2 0.8 66
2019-04-12 21:00:00 10.7 0 Calma 57 Oeste 0 923.6 0.1 44
2019-04-12 20:00:00 13.7 4 Sur 13 Sudeste 0 923.4 -0.2 31
2019-04-12 19:00:00 15.3 6 Este 14 Sudeste 0 923.4 -0.9 28
2019-04-12 18:00:00 15.3 4 Noroeste 21 Este 0 923.5 -1.4 28
2019-04-12 17:00:00 14.9 5 Norte 15 Este 0 923.6 -1.7 33
2019-04-12 16:00:00 14.6 7 Nordeste 17 Nordeste 0 924.3 -1.3 33
2019-04-12 15:00:00 13.5 6 Norte 23 Norte 0 924.9 -1 41
2019-04-12 14:00:00 12.8 6 Oeste 16 Sudoeste 0 925.3 -0.5 45
2019-04-12 13:00:00 11.1 6 Noroeste 17 Noroeste 0 925.6 -0.3 48
2019-04-12 12:00:00 10 5 Noroeste 15 Noroeste 0 925.9 0 53
2019-04-12 11:00:00 8.2 5 Norte 25 Noroeste 0 925.8 0.1 65
2019-04-12 10:00:00 5.1 3 Norte 16 Noroeste 0 925.9 0.5 84
2019-04-12 09:00:00 0.6 3 Noroeste 15 Sudoeste 0 925.9 0.5 100
2019-04-12 08:00:00 -1 0 Calma 48 Sudoeste 0 925.7 0.2 99
2019-04-12 07:00:00 -0.9 3 Sudeste 8 Noroeste 0 925.4 -0.1 99
2019-04-12 06:00:00 -0.7 2 Oeste 6 Noroeste 0 925.4 -0.5 98
2019-04-12 05:00:00 -0.3 0 Calma 3 Noroeste 0 925.5 -0.5 98
2019-04-12 04:00:00 0 0 Calma 4 Norte 0 925.5 -0.4 96
2019-04-12 03:00:00 1 3 Noroeste 4 Norte 0 925.9 0.3 96
2019-04-12 02:00:00 1.7 0 Calma 3 Norte 0 926 0.2 93
2019-04-12 01:00:00 2.9 0 Calma 5 Este 0 925.9 0.4 90
2019-04-12 00:00:00 4.4 2 Este 9 Nordeste 0 925.6 0.9 83
2019-04-11 23:00:00 5.9 0 Calma 12 Este 0 925.8 1.7 80
2019-04-11 22:00:00 6.6 5 Nordeste 20 Este 0 925.5 1.5 78
2019-04-11 21:00:00 8.5 10 Este 28 Este 0 924.7 0.7 70
2019-04-11 20:00:00 11.6 4 Este 8 Este 0 924.1 0 50
2019-04-11 19:00:00 12.1 3 Norte 9 Nordeste 0 924 -0.4 46
2019-04-11 18:00:00 13 4 Nordeste 13 Noroeste 0 924 -0.8 44
2019-04-11 17:00:00 13.1 3 Norte 13 Noroeste 0 924.1 -0.8 42
2019-04-11 16:00:00 12.2 6 Noroeste 18 Nordeste 0 924.4 -0.9 45
2019-04-11 15:00:00 12.7 4 Sur 16 Sur 0 924.8 -0.7 47
2019-04-11 14:00:00 12.2 8 Sur 21 Sudoeste 0 924.9 -0.3 55
2019-04-11 13:00:00 10.8 7 Sudeste 22 Este 0 925.3 0.2 57
2019-04-11 12:00:00 9.2 6 Sudoeste 18 Sudoeste 0 925.5 0.6 60
2019-04-11 11:00:00 8 8 Sur 16 Sur 0 925.2 0.5 71
2019-04-11 10:00:00 4.6 3 Sur 10 Sudeste 0 925.1 0.8 88
2019-04-11 09:00:00 -0.1 3 Nordeste 64 Nordeste 0 924.9 0.5 99
2019-04-11 08:00:00 -1.2 3 Este 15 Noroeste 0 924.7 0.2 99
2019-04-11 07:00:00 -1.1 0 Calma 5 Sudoeste 0 924.3 -0.1 98
2019-04-11 06:00:00 -0.8 0 Calma 12 Nordeste 0 924.4 -0.1 98
2019-04-11 05:00:00 -0.5 0 Calma 4 Oeste 0 924.5 0 97
2019-04-11 04:00:00 0.4 3 Oeste 4 Oeste 0 924.4 0 97
2019-04-11 03:00:00 1.3 0 Calma 6 Norte 0 924.5 0.2 95
2019-04-11 02:00:00 2.2 0 Calma 10 Oeste 0 924.5 0.4 87
2019-04-11 01:00:00 3.4 4 Nordeste 9 Nordeste 0 924.4 1 84
2019-04-11 00:00:00 3.8 2 Nordeste 13 Nordeste 0 924.3 2.1 83
2019-04-10 23:00:00 4.2 4 Nordeste 10 Nordeste 0 924.1 2.6 82
2019-04-10 22:00:00 5.6 5 Nordeste 21 Nordeste 0 923.4 2.2 78
2019-04-10 21:00:00 7 12 Nordeste 49 Este 0 922.2 1.7 74
2019-04-10 20:00:00 9.1 11 Nordeste 25 Nordeste 0 921.5 1.5 68
2019-04-10 19:00:00 8.6 6 Este 23 Norte 0 921.2 0.9 72
2019-04-10 18:00:00 9.5 12 Noroeste 32 Norte 0 920.5 0.1 65
2019-04-10 17:00:00 12.3 4 Norte 18 Norte 0 920 -0.5 55
2019-04-10 16:00:00 9.9 7 Norte 17 Norte 0 920.3 -0.4 63
2019-04-10 15:00:00 8.9 5 Noroeste 14 Norte 0 920.4 0.2 69
2019-04-10 14:00:00 6.3 6 Norte 14 Nordeste 0.8 920.5 0.6 80
2019-04-10 13:00:00 5.8 4 Oeste 15 Oeste 1.4 920.7 1.3 82
2019-04-10 12:00:00 6.6 4 Oeste 16 Sudoeste 0.2 920.2 1 78
2019-04-10 11:00:00 6.8 4 Oeste 13 Noroeste 0 919.9 1.4 80
2019-04-10 10:00:00 4.8 4 Oeste 10 Sudoeste 0 919.4 1.1 95
2019-04-10 09:00:00 3 0 Calma 18 Oeste 0 919.2 1 99
2019-04-10 08:00:00 1.4 0 Calma 17 Oeste 0 918.5 0.5 98
2019-04-10 07:00:00 2.4 4 Sudoeste 8 Sudoeste 0.2 918.3 0.3 98
2019-04-10 06:00:00 1.6 0 Calma 5 Sudoeste 0 918.2 0.2 98
2019-04-10 05:00:00 1.4 0 Calma 4 Noroeste 0 918 0 97
2019-04-10 04:00:00 1.1 0 Calma 4 Oeste 0 918 0.3 96
2019-04-10 03:00:00 1.9 0 Calma 14 Nordeste 0 918 0.3 95
2019-04-10 02:00:00 3 2 Oeste 11 Sudoeste 0 918 0.3 94
2019-04-10 01:00:00 4 3 Oeste 14 Sudoeste 0 917.7 0.5 87
2019-04-10 00:00:00 4.7 4 Oeste 13 Oeste 0 917.7 1.3 83
2019-04-09 23:00:00 5.3 2 Noroeste 12 Oeste 0 917.7 1.6 79
2019-04-09 22:00:00 6.1 2 Oeste 15 Sudeste 0 917.2 1.6 79
2019-04-09 21:00:00 7.6 4 Sudoeste 25 Sudoeste 0 916.4 0.9 72
2019-04-09 20:00:00 8.8 9 Sudoeste 31 Sudoeste 0 916.1 0.2 71
2019-04-09 19:00:00 12.6 9 Sudoeste 26 Sudoeste 0 915.6 -0.4 54
2019-04-09 18:00:00 12.6 6 Oeste 25 Oeste 0 915.5 -0.6 53
2019-04-09 17:00:00 10.8 6 Oeste 19 Oeste 0 915.9 -0.2 59
2019-04-09 16:00:00 11.2 6 Oeste 22 Sudoeste 0 916 -0.3 65
2019-04-09 15:00:00 8 5 Oeste 27 Sudoeste 0 916.1 -0.3 76
2019-04-09 14:00:00 7.6 4 Oeste 24 Sur 0.4 916.1 -0.2 82
2019-04-09 13:00:00 7.3 6 Oeste 36 Sudoeste 0.6 916.3 -0.2 83
2019-04-09 12:00:00 6.7 11 Sudoeste 37 Sudoeste 0.6 916.4 -0.2 86
2019-04-09 11:00:00 6.3 16 Sudoeste 35 Sudoeste 0 916.3 -0.2 87
2019-04-09 10:00:00 5.3 14 Sudoeste 28 Sudoeste 0.2 916.5 -0.1 95
2019-04-09 09:00:00 4.7 12 Sudoeste 24 Sudoeste 0.6 916.6 -0.2 95
2019-04-09 08:00:00 4.7 10 Sudoeste 26 Sudoeste 0 916.5 -0.5 94
2019-04-09 07:00:00 4.3 12 Sudoeste 23 Sur 0 916.6 -0.6 97
2019-04-09 06:00:00 3.6 8 Sudoeste 22 Sudoeste 0 916.8 -0.4 97
2019-04-09 05:00:00 2.6 5 Sudoeste 14 Sudoeste 0 917 -0.4 96
2019-04-09 04:00:00 3 8 Sudoeste 17 Sudoeste 0 917.2 -0.1 95
2019-04-09 03:00:00 3.4 8 Sudoeste 21 Sudoeste 0 917.2 -0.1 93
2019-04-09 02:00:00 3.5 7 Sudoeste 15 Oeste 0 917.4 0.1 87
2019-04-09 01:00:00 3.9 5 Oeste 17 Sudoeste 0 917.3 0.3 85
2019-04-09 00:00:00 4.2 6 Sudoeste 18 Sudoeste 0 917.3 0.8 83
2019-04-08 23:00:00 5.2 4 Sudoeste 18 Sudoeste 0 917.3 1.1 76
2019-04-08 22:00:00 7 6 Sudoeste 30 Sudoeste 0 917 0.8 72
2019-04-08 21:00:00 8.9 12 Sudoeste 24 Sudoeste 0 916.5 0 60
2019-04-08 20:00:00 10.8 10 Sudoeste 32 Sudoeste 0 916.2 -0.6 52
2019-04-08 19:00:00 12.7 10 Sudoeste 42 Sudoeste 0 916.2 -1 46
2019-04-08 18:00:00 14.4 8 Sudoeste 33 Sudoeste 0 916.5 -0.9 41
2019-04-08 17:00:00 13.6 5 Oeste 30 Sudoeste 0 916.8 -0.8 47
2019-04-08 16:00:00 13.5 7 Sudoeste 29 Sudoeste 0 917.2 -0.5 46
2019-04-08 15:00:00 14.2 9 Sudoeste 35 Sudoeste 0 917.4 -0.3 41
2019-04-08 14:00:00 12.5 5 Oeste 26 Sudoeste 0 917.6 0.3 51
2019-04-08 13:00:00 11.3 5 Oeste 22 Oeste 0 917.7 0.8 59
2019-04-08 12:00:00 10.5 5 Oeste 21 Norte 0 917.7 1.2 65
2019-04-08 11:00:00 9.8 5 Oeste 17 Sudoeste 0 917.3 1.5 77
2019-04-08 10:00:00 8.5 4 Oeste 15 Oeste 0 916.9 1.7 87
2019-04-08 09:00:00 7.3 3 Oeste 16 Sudoeste 0 916.5 1.4 97
2019-04-08 08:00:00 7.3 3 Oeste 20 Sudoeste 0.2 915.8 0.6 98
2019-04-08 07:00:00 7.5 7 Sudoeste 28 Sudoeste 0.2 915.2 0 98
2019-04-08 06:00:00 7.4 11 Sudoeste 30 Sur 0 915.1 -0.5 97
2019-04-08 05:00:00 7.5 12 Sudoeste 30 Sudoeste 0 915.2 -0.8 98
2019-04-08 04:00:00 6.7 4 Sudoeste 17 Sudoeste 1.4 915.2 -1.2 98
2019-04-08 03:00:00 5.4 4 Nordeste 8 Nordeste 0.8 915.6 -1.1 98
2019-04-08 02:00:00 5.3 3 Nordeste 8 Este 1.4 916 -1.1 97
2019-04-08 01:00:00 5.2 3 Este 10 Este 0.6 916.4 -0.7 97
2019-04-08 00:00:00 5.1 5 Sudeste 11 Sudeste 0.8 916.7 -0.4 96
2019-04-07 23:00:00 4.9 0 Calma 10 Sur 1 917.1 -0.1 94
2019-04-07 22:00:00 4.9 6 Sur 23 Sudoeste 0.8 917.1 0.8 93
2019-04-07 21:00:00 5.2 9 Sudoeste 28 Sudoeste 0.8 917.1 1.4 89
2019-04-07 20:00:00 6.1 13 Sudoeste 31 Sudoeste 0.2 917.2 1.6 83
2019-04-07 19:00:00 7.9 12 Sudoeste 38 Sudoeste 0 916.3 0.7 67
2019-04-07 18:00:00 10.2 19 Sudoeste 36 Sudoeste 0 915.7 -0.1 55
2019-04-07 17:00:00 11.4 17 Sudoeste 31 Sudoeste 0 915.6 0 40
2019-04-07 16:00:00 12.7 13 Sudoeste 32 Sudoeste 0 915.6 0 39
2019-04-07 15:00:00 12.1 12 Sudoeste 33 Sudoeste 0 915.8 0.3 41
2019-04-07 14:00:00 10.9 9 Sudoeste 23 Sudoeste 0 915.6 0.5 44
2019-04-07 13:00:00 10.2 10 Sudoeste 23 Sur 0 915.6 0.8 51
2019-04-07 12:00:00 8.4 7 Oeste 23 Sudoeste 0 915.5 1.2 60
2019-04-07 11:00:00 6 5 Oeste 17 Oeste 0 915.1 1.7 71
2019-04-07 10:00:00 3.1 3 Oeste 13 Sudoeste 0 914.8 2.2 84
2019-04-07 09:00:00 -0.1 5 Sudoeste 14 Sudoeste 0 914.3 2.7 99
2019-04-07 08:00:00 -1.5 3 Sudoeste 5 Sudoeste 0 913.4 2.3 98
2019-04-07 07:00:00 -1.7 2 Sur 10 Noroeste 0 912.6 1.9 98
2019-04-07 06:00:00 -1.2 4 Sudoeste 8 Oeste 0 911.6 1.1 97
2019-04-07 05:00:00 -0.8 2 Oeste 11 Oeste 0 911.1 1.2 96
2019-04-07 04:00:00 -0.2 3 Sudoeste 14 Oeste 0 910.7 0.8 95
2019-04-07 03:00:00 0.3 3 Sudoeste 10 Oeste 0 910.5 1.1 93
2019-04-07 02:00:00 0.7 2 Sudoeste 12 Oeste 0 909.9 1 87
2019-04-07 01:00:00 1.7 2 Oeste 17 Sudoeste 0 909.9 1.7 83
2019-04-07 00:00:00 1.8 2 Oeste 10 Oeste 0 909.4 1.8 82
2019-04-06 23:00:00 2.8 2 Sudoeste 19 Sudoeste 0 908.9 2.3 77
2019-04-06 22:00:00 4.1 5 Oeste 26 Sudoeste 0 908.2 2.7 75
2019-04-06 21:00:00 4.8 6 Oeste 18 Oeste 0 907.6 2.4 75
2019-04-06 20:00:00 6.7 8 Oeste 26 Sudoeste 0 906.6 1.4 66
2019-04-06 19:00:00 6.9 13 Sudoeste 32 Sudoeste 0 905.5 1 75
2019-04-06 18:00:00 6.5 14 Sudoeste 31 Sudoeste 0 905.2 0.4 81
2019-04-06 17:00:00 6.5 6 Oeste 28 Oeste 1.2 905.2 0.2 77
2019-04-06 16:00:00 8.8 8 Sudoeste 36 Sudoeste 0 904.5 -0.9 64
2019-04-06 15:00:00 7.8 17 Sudoeste 40 Sudoeste 0.2 904.8 -0.8 74
2019-04-06 14:00:00 5.8 12 Sudoeste 41 Sur 0.2 905 -0.4 82
2019-04-06 13:00:00 4.8 13 Sudoeste 48 Sur 0.2 905.4 0.2 81
2019-04-06 12:00:00 5 19 Sudoeste 44 Sudoeste 0 905.6 0.3 77
2019-04-06 11:00:00 4.1 13 Sudoeste 40 Sudoeste 0.2 905.4 0 82
2019-04-06 10:00:00 3.6 14 Sudoeste 57 Este 0 905.2 -0.4 89
2019-04-06 09:00:00 2.6 16 Sudoeste 31 Sudoeste 0.4 905.3 -0.3 97
2019-04-06 08:00:00 2.4 13 Sudoeste 26 Sudoeste 0 905.4 -0.4 96
2019-04-06 07:00:00 2.4 11 Sudoeste 26 Sudoeste 0 905.6 -0.4 95
2019-04-06 06:00:00 2.2 8 Sudoeste 22 Sudoeste 0 905.6 -0.5 96
2019-04-06 05:00:00 1.9 8 Sudoeste 24 Sudoeste 0 905.8 -0.3 97
2019-04-06 04:00:00 1.6 7 Sudoeste 21 Sudoeste 0 906 0.1 97
2019-04-06 03:00:00 1.5 4 Sudoeste 19 Sudoeste 0 906.1 0.1 97
2019-04-06 02:00:00 1.3 6 Sudoeste 19 Sudoeste 0 906.1 0.5 95
2019-04-06 01:00:00 1.6 7 Sudoeste 18 Sudoeste 0 905.9 0.8 87
2019-04-06 00:00:00 2.3 8 Sudoeste 14 Sudoeste 0 906 1.4 84
2019-04-05 23:00:00 2.7 6 Sudoeste 11 Sur 0 905.6 1.8 81
2019-04-05 22:00:00 4.1 0 Calma 14 Sudoeste 0 905.1 2 74
2019-04-05 21:00:00 5 4 Oeste 23 Sudoeste 0 904.6 1.6 71
2019-04-05 20:00:00 6.6 7 Sudoeste 35 Oeste 0 903.8 0.6 58
2019-04-05 19:00:00 9.3 7 Sudoeste 30 Sudoeste 0 903.1 -0.5 42
2019-04-05 18:00:00 10.2 10 Sudoeste 30 Sur 0 903 -0.9 44
2019-04-05 17:00:00 9.9 10 Sudoeste 32 Sudoeste 0 903.2 -0.6 43
2019-04-05 16:00:00 8.3 12 Sudoeste 25 Sudoeste 0 903.6 -0.6 57
2019-04-05 15:00:00 7.9 8 Sudoeste 26 Sudoeste 0 903.9 -0.3 57
2019-04-05 14:00:00 7.6 8 Sudoeste 28 Sur 0 903.8 0 64
2019-04-05 13:00:00 7.5 9 Sudoeste 30 Sudoeste 0 904.2 0.8 69
2019-04-05 12:00:00 6 9 Sudoeste 30 Sur 0 904.2 1.3 71
2019-04-05 11:00:00 4.7 10 Sudoeste 33 Sudoeste 0 903.8 1.2 82
2019-04-05 10:00:00 4.1 13 Sudoeste 27 Sudoeste 0 903.4 0.9 90
2019-04-05 09:00:00 3.9 10 Sudoeste 27 Sudoeste 0.2 902.9 0.2 96
2019-04-05 08:00:00 4.1 13 Sudoeste 26 Sudoeste 0.2 902.6 -0.4 98
2019-04-05 07:00:00 3.8 10 Sudoeste 20 Sur 0.2 902.5 -0.9 98
2019-04-05 06:00:00 3.4 11 Sur 32 Sur 0 902.7 -0.9 97
2019-04-05 05:00:00 3.3 15 Sudoeste 37 Sur 0.4 903 -1.3 95
2019-04-05 04:00:00 3.7 15 Sur 29 Sur 1.8 903.4 -1.7 95
2019-04-05 03:00:00 3.8 9 Sur 24 Sur 0.4 903.6 -2.1 96
2019-04-05 02:00:00 3.6 9 Sur 23 Sur 0.2 904.3 -1.8 95
2019-04-05 01:00:00 3.4 9 Sur 27 Sudoeste 0.6 905.1 -1.4 95
2019-04-05 00:00:00 3.2 8 Sur 23 Sur 0.6 905.7 -0.9 95
2019-04-04 23:00:00 3.3 12 Sudoeste 23 Sur 0.8 906.1 -0.9 94
2019-04-04 22:00:00 3.3 11 Sudoeste 24 Sudoeste 0.6 906.5 -0.1 93
2019-04-04 21:00:00 3.2 13 Sudoeste 29 Sudoeste 0.8 906.6 0.3 87
2019-04-04 20:00:00 4.3 14 Sudoeste 35 Sudoeste 0 907 0.4 79
2019-04-04 19:00:00 8.3 12 Sudoeste 38 Sudoeste 0 906.6 -0.6 45
2019-04-04 18:00:00 10.5 11 Sudoeste 45 Sur 0 906.3 -1.6 30
2019-04-04 17:00:00 12.1 17 Sudoeste 45 Sudoeste 0 906.6 -2.3 29
2019-04-04 16:00:00 11.1 22 Sudoeste 49 Sudoeste 0 907.2 -2.3 31
2019-04-04 15:00:00 11.3 15 Sudoeste 36 Sudoeste 0 907.9 -2.2 29
2019-04-04 14:00:00 9.7 9 Sudoeste 30 Sudoeste 0 908.9 -1.4 35
2019-04-04 13:00:00 10.2 9 Sudoeste 33 Sudoeste 0 909.5 -0.8 39
2019-04-04 12:00:00 7.2 7 Sudoeste 23 Sudoeste 0 910.1 -0.1 43
2019-04-04 11:00:00 5.3 5 Oeste 16 Sur 0 910.3 0.4 55
2019-04-04 10:00:00 2.8 5 Oeste 14 Oeste 0 910.3 0.4 72
2019-04-04 09:00:00 -2 3 Oeste 17 Sudoeste 0 910.2 0.2 96
2019-04-04 08:00:00 -4.1 0 Calma 4 Noroeste 0 909.9 -0.3 92
2019-04-04 07:00:00 -3.4 0 Calma 12 Norte 0 909.9 -0.7 88
2019-04-04 06:00:00 -2 5 Norte 16 Nordeste 0 910 -1.2 88
2019-04-04 05:00:00 -3 0 Calma 6 Noroeste 0 910.2 -1.6 87
2019-04-04 04:00:00 -2.4 2 Oeste 13 Nordeste 0 910.6 -1.5 83
2019-04-04 03:00:00 -2.1 2 Noroeste 9 Noroeste 0 911.2 -1.4 80
2019-04-04 02:00:00 -2.4 0 Calma 9 Sudoeste 0 911.8 -0.7 78
2019-04-04 01:00:00 -2.1 0 Calma 4 Norte 0 912.1 -0.3 80
2019-04-04 00:00:00 -0.6 0 Calma 8 Noroeste 0 912.6 0.7 76
2019-04-03 23:00:00 0.9 2 Oeste 24 Noroeste 0 912.5 1 68
2019-04-03 22:00:00 2.7 10 Noroeste 24 Norte 0 912.4 1.1 59
2019-04-03 21:00:00 4.2 14 Noroeste 31 Noroeste 0 911.9 0.6 51
2019-04-03 20:00:00 5.7 17 Noroeste 36 Noroeste 0 911.5 -0.1 40
2019-04-03 19:00:00 7.9 16 Noroeste 37 Noroeste 0 911.3 -0.9 32
2019-04-03 18:00:00 8.7 15 Noroeste 55 Noroeste 0 911.3 -0.7 32
2019-04-03 17:00:00 9.2 14 Noroeste 50 Norte 0 911.6 -1.1 28
2019-04-03 16:00:00 7.2 24 Noroeste 46 Noroeste 0 912.2 -1.4 47
2019-04-03 15:00:00 10.9 8 Oeste 33 Norte 0 912 -1.9 32
2019-04-03 14:00:00 9.9 12 Noroeste 33 Noroeste 0 912.7 -1.3 38
2019-04-03 13:00:00 6.2 9 Noroeste 39 Noroeste 0 913.6 -0.8 53
2019-04-03 12:00:00 8.7 7 Noroeste 22 Noroeste 0 913.9 -0.8 42
2019-04-03 11:00:00 7.9 10 Noroeste 25 Noroeste 0 914 -0.6 48
2019-04-03 10:00:00 6.4 4 Oeste 18 Sudoeste 0 914.4 -0.5 64
2019-04-03 09:00:00 2.5 0 Calma 16 Noroeste 0 914.7 -0.7 87
2019-04-03 08:00:00 2.8 3 Noroeste 8 Noroeste 0 914.6 -1.5 92
2019-04-03 07:00:00 2.6 0 Calma 4 Noroeste 0 914.9 -1.6 90
2019-04-03 06:00:00 3 0 Calma 5 Noroeste 0 915.4 -1.9 96
2019-04-03 05:00:00 2.2 0 Calma 5 Sudoeste 0 916.1 -1.9 97
2019-04-03 04:00:00 1.6 3 Sudoeste 5 Sudoeste 0 916.5 -2 95
2019-04-03 03:00:00 2 0 Calma 4 Noroeste 0 917.3 -1.5 88
2019-04-03 02:00:00 3.2 0 Calma 4 Noroeste 0 918 -0.9 84
2019-04-03 01:00:00 5.2 2 Oeste 16 Este 0 918.5 0.3 79
2019-04-03 00:00:00 6.5 4 Norte 14 Norte 0 918.8 1.1 78
2019-04-02 23:00:00 6.9 6 Nordeste 23 Nordeste 0 918.9 1.7 76
2019-04-02 22:00:00 7.3 11 Nordeste 28 Nordeste 0 918.2 0.8 75
2019-04-02 21:00:00 9.5 13 Nordeste 30 Nordeste 0 917.7 0 67
2019-04-02 20:00:00 13.2 7 Nordeste 22 Noroeste 0 917.2 -1.1 51
2019-04-02 19:00:00 17 5 Sudoeste 18 Sudoeste 0 917.4 -1.9 27
2019-04-02 18:00:00 18 9 Sudoeste 23 Sudoeste 0 917.7 -2.2 26
2019-04-02 17:00:00 17.6 5 Sudoeste 15 Norte 0 918.3 -2.3 31
2019-04-02 16:00:00 16.7 4 Nordeste 15 Nordeste 0 919.3 -2 36
2019-04-02 15:00:00 14.7 3 Norte 16 Este 0 919.9 -1.7 39
2019-04-02 14:00:00 14.9 4 Nordeste 19 Nordeste 0 920.6 -0.8 37
2019-04-02 13:00:00 13.6 7 Nordeste 17 Este 0 921.3 0 47
2019-04-02 12:00:00 12.1 3 Sudeste 16 Sudeste 0 921.6 0.6 54
2019-04-02 11:00:00 10.9 6 Este 21 Este 0 921.4 0.7 61
2019-04-02 10:00:00 9 5 Nordeste 10 Este 0 921.3 0.6 69
2019-04-02 09:00:00 5.8 3 Nordeste 11 Norte 0 921 0.5 79
2019-04-02 08:00:00 5.4 3 Nordeste 18 Nordeste 0 920.7 -0.1 81
2019-04-02 07:00:00 5.1 4 Norte 6 Nordeste 0 920.7 -0.3 85
2019-04-02 06:00:00 4.2 3 Nordeste 8 Nordeste 0 920.5 -0.6 86
2019-04-02 05:00:00 4.8 2 Norte 10 Nordeste 0 920.8 -0.3 82
2019-04-02 04:00:00 6.2 3 Nordeste 9 Nordeste 0 921 -0.2 80
2019-04-02 03:00:00 6.3 0 Calma 10 Este 0 921.1 0.2 81
2019-04-02 02:00:00 6.4 0 Calma 15 Nordeste 0 921.1 0.5 78
2019-04-02 01:00:00 7.7 6 Nordeste 26 Nordeste 0 921.2 1.1 76
2019-04-02 00:00:00 8.3 10 Nordeste 22 Nordeste 0 920.9 1.7 74
2019-04-01 23:00:00 9 7 Nordeste 20 Nordeste 0 920.6 2.1 71
2019-04-01 22:00:00 10.9 7 Nordeste 15 Nordeste 0 920.1 2.1 60
2019-04-01 21:00:00 12.9 5 Este 24 Este 0 919.2 1.2 49
2019-04-01 20:00:00 15.1 5 Este 14 Sudeste 0 918.5 0.2 33
2019-04-01 19:00:00 16.8 4 Sudeste 18 Noroeste 0 918 -0.7 31
2019-04-01 18:00:00 17.3 5 Sudeste 14 Sudeste 0 918 -1.2 29
2019-04-01 17:00:00 17.4 5 Sudeste 17 Sudeste 0 918.3 -1.2 29
2019-04-01 16:00:00 16.8 6 Sur 17 Sudoeste 0 918.7 -1.2 30
2019-04-01 15:00:00 15.2 4 Sur 17 Sudoeste 0 919.2 -1 36
2019-04-01 14:00:00 14.9 4 Norte 14 Oeste 0 919.5 -0.6 41
2019-04-01 13:00:00 13.8 4 Sur 12 Sur 0 919.9 0.1 49
2019-04-01 12:00:00 11.6 4 Este 13 Sudeste 0 920.2 0.4 58
2019-04-01 11:00:00 9.6 6 Este 14 Sudeste 0 920.1 0.6 66
2019-04-01 10:00:00 5.9 3 Nordeste 14 Oeste 0 919.8 0.6 82
2019-04-01 09:00:00 0.9 0 Calma 3 Oeste 0 919.8 0.5 98
2019-04-01 08:00:00 -0.4 2 Oeste 9 Noroeste 0 919.5 0 96
2019-04-01 07:00:00 -0.3 3 Noroeste 7 Noroeste 0 919.2 -0.4 96
2019-04-01 06:00:00 0.4 4 Noroeste 9 Norte 0 919.3 -0.5 96
2019-04-01 05:00:00 0.6 2 Noroeste 3 Noroeste 0 919.5 -0.1 94
2019-04-01 04:00:00 1.9 3 Norte 4 Norte 0 919.6 -0.1 94
2019-04-01 03:00:00 2.3 0 Calma 3 Este 0 919.8 0 91
2019-04-01 02:00:00 3 0 Calma 4 Noroeste 0 919.6 0.1 85
2019-04-01 01:00:00 4 2 Norte 5 Norte 0 919.7 0.7 82
2019-04-01 00:00:00 5 0 Calma 4 Norte 0 919.8 1.8 75
2019-03-31 23:00:00 7 2 Norte 15 Sudeste 0 919.5 2 70
2019-03-31 22:00:00 9.8 8 Este 23 Sudeste 0 919 1.7 59
2019-03-31 21:00:00 11.9 9 Este 27 Este 0 918 0.7 39
2019-03-31 20:00:00 14.5 10 Este 37 Este 0 917.5 -0.2 31
2019-03-31 19:00:00 15.8 9 Este 28 Este 0 917.3 -0.8 27
2019-03-31 18:00:00 17.5 9 Nordeste 28 Sudeste 0 917.3 -1.6 24
2019-03-31 17:00:00 16.9 10 Nordeste 28 Sudeste 0 917.7 -2 25
2019-03-31 16:00:00 18.3 11 Este 29 Nordeste 0 918.1 -2.2 23
2019-03-31 15:00:00 17.4 12 Este 31 Nordeste 0 918.9 -1.7 26
2019-03-31 14:00:00 16.3 12 Este 26 Este 0 919.7 -1 26
2019-03-31 13:00:00 15.1 9 Este 30 Este 0 920.3 -0.2 32
2019-03-31 12:00:00 13.3 9 Este 22 Este 0 920.6 0.1 40
2019-03-31 11:00:00 11.2 9 Este 23 Nordeste 0 920.7 0.2 45
2019-03-31 10:00:00 8.6 11 Nordeste 22 Nordeste 0 920.5 0.1 54
2019-03-31 09:00:00 4.9 10 Nordeste 22 Nordeste 0 920.5 -0.1 63
2019-03-31 08:00:00 3.7 4 Nordeste 17 Nordeste 0 920.5 -0.6 65
2019-03-31 07:00:00 4.5 8 Nordeste 19 Nordeste 0 920.4 -1.3 62
2019-03-31 06:00:00 4.7 9 Nordeste 21 Nordeste 0 920.6 -1.5 63
2019-03-31 05:00:00 5.2 11 Nordeste 22 Nordeste 0 921.1 -1.2 62
2019-03-31 03:00:00 5.4 7 Nordeste 17 Nordeste 0 922.1 -0.4 66
2019-03-31 01:00:00 7 5 Nordeste 19 Nordeste 0 922.3 -0.3 60
2019-03-31 00:00:00 7.6 8 Nordeste 21 Nordeste 0 922.5 0.1 61
2019-03-30 23:00:00 9.9 10 Nordeste 27 Nordeste 0 922.5 0.7 52
2019-03-30 22:00:00 10.4 9 Nordeste 24 Nordeste 0 922.6 1.1 51
2019-03-30 21:00:00 8.9 3 Nordeste 8 Nordeste 0 922.4 0.9 57
2019-03-30 20:00:00 11.4 2 Nordeste 18 Nordeste 0 921.8 0.2 46
2019-03-30 19:00:00 14.9 0 Calma 10 Sudoeste 0 921.5 -0.7 29
2019-03-30 18:00:00 17.2 5 Sur 18 Sudoeste 0 921.5 -1.3 23
2019-03-30 17:00:00 16.6 4 Sur 13 Sur 0 921.6 -1.9 25
2019-03-30 16:00:00 17.5 5 Sur 26 Sudoeste 0 922.2 -2 25
2019-03-30 15:00:00 18.6 4 Sur 19 Sudoeste 0 922.8 -2.1 23
2019-03-30 14:00:00 17.6 8 Sudeste 21 Este 0 923.5 -1.9 30
2019-03-30 13:00:00 16.2 6 Sudeste 24 Sudeste 0 924.2 -1.4 36
2019-03-30 12:00:00 14.2 6 Sur 21 Este 0 924.9 -0.7 38
2019-03-30 11:00:00 12.1 9 Sudeste 17 Este 0 925.4 -0.1 47
2019-03-30 10:00:00 9.6 7 Este 23 Este 0 925.6 0.2 51
2019-03-30 09:00:00 6.7 7 Nordeste 18 Norte 0 925.6 0.3 61
2019-03-30 08:00:00 2.8 3 Nordeste 11 Este 0 925.5 0.2 76
2019-03-30 07:00:00 2.2 3 Este 18 Este 0 925.4 -0.1 75
2019-03-30 06:00:00 0.5 3 Este 10 Nordeste 0 925.3 -0.4 79
2019-03-30 05:00:00 1.3 3 Nordeste 7 Este 0 925.3 -0.6 75
2019-03-30 04:00:00 1.7 2 Este 8 Este 0 925.5 -0.2 72
2019-03-30 03:00:00 2.6 2 Nordeste 14 Sudeste 0 925.7 0.1 70
2019-03-30 02:00:00 2.5 8 Este 23 Sudeste 0 925.9 0.4 73
2019-03-30 01:00:00 2.5 0 Calma 3 Norte 0 925.7 0.4 79
2019-03-30 00:00:00 4 2 Noroeste 8 Sur 0 925.6 0.3 72
2019-03-29 23:00:00 5 5 Nordeste 18 Este 0 925.5 0.4 62
2019-03-29 22:00:00 6.2 2 Norte 4 Oeste 0 925.3 0.4 66
2019-03-29 21:00:00 8.9 2 Norte 6 Sudeste 0 925.3 0.6 50
2019-03-29 20:00:00 12.5 2 Este 17 Sudoeste 0 925.1 0.3 38
2019-03-29 19:00:00 15.9 6 Sudoeste 18 Sudoeste 0 924.9 -0.4 25
2019-03-29 18:00:00 18.4 9 Sudoeste 22 Sudoeste 0 924.7 -1.3 20
2019-03-29 17:00:00 19.4 8 Sur 27 Sudoeste 0 924.8 -1.9 19
2019-03-29 16:00:00 19.4 10 Sur 26 Sudoeste 0 925.3 -2.1 20
2019-03-29 15:00:00 18.9 8 Sudoeste 26 Sudoeste 0 926 -2.1 22
2019-03-29 14:00:00 18.3 12 Sudoeste 28 Sudoeste 0 926.7 -1.7 21
2019-03-29 13:00:00 17.1 10 Sudoeste 29 Sur 0 927.4 -1.4 26
2019-03-29 12:00:00 15.1 10 Sudoeste 26 Sur 0 928.1 -0.7 30
2019-03-29 11:00:00 12.8 11 Sur 23 Sur 0 928.4 -0.4 35
2019-03-29 10:00:00 9.7 6 Este 21 Este 0 928.8 0.1 51
2019-03-29 09:00:00 6.5 8 Este 17 Este 0 928.8 0.3 62
2019-03-29 08:00:00 1.5 5 Este 17 Este 0 928.8 0.3 83
2019-03-29 07:00:00 0.7 4 Este 17 Nordeste 0 928.7 0.1 82
2019-03-29 06:00:00 1.8 5 Este 13 Este 0 928.5 -0.7 77
2019-03-29 05:00:00 2.7 7 Nordeste 19 Nordeste 0 928.5 -1 74
2019-03-29 04:00:00 3.6 8 Nordeste 19 Nordeste 0 928.6 -1.1 71
2019-03-29 03:00:00 3.9 8 Nordeste 19 Nordeste 0 929.2 -0.6 73
2019-03-29 02:00:00 4.3 8 Nordeste 18 Nordeste 0 929.5 -0.5 72
2019-03-29 01:00:00 5.4 10 Nordeste 21 Nordeste 0 929.7 -0.3 69
2019-03-29 00:00:00 5.9 9 Nordeste 24 Nordeste 0 929.8 -0.2 66
2019-03-28 23:00:00 7 11 Nordeste 27 Nordeste 0 930 0.4 66
2019-03-28 22:00:00 8.2 18 Nordeste 33 Nordeste 0 930 0.7 64
2019-03-28 21:00:00 9 15 Nordeste 26 Norte 0 930 1 60
2019-03-28 20:00:00 10.8 10 Nordeste 35 Nordeste 0 929.6 0.4 53
2019-03-28 19:00:00 13.6 15 Nordeste 35 Nordeste 0 929.3 -0.3 36
2019-03-28 18:00:00 15.8 15 Nordeste 40 Nordeste 0 929 -1.1 30
2019-03-28 17:00:00 17 13 Nordeste 35 Nordeste 0 929.2 -1.7 24
2019-03-28 16:00:00 17.6 14 Este 36 Nordeste 0 929.6 -2 24
2019-03-28 15:00:00 16.4 16 Nordeste 36 Este 0 930.1 -2.1 26
2019-03-28 14:00:00 15.7 14 Nordeste 33 Nordeste 0 930.9 -1.8 27
2019-03-28 13:00:00 13.9 14 Nordeste 37 Nordeste 0 931.6 -1.3 31
2019-03-28 12:00:00 12.7 15 Este 39 Nordeste 0 932.2 -0.6 34
2019-03-28 11:00:00 10.8 15 Nordeste 41 Nordeste 0 932.7 0.1 44
2019-03-28 10:00:00 8.3 14 Nordeste 33 Nordeste 0 932.9 0.5 52
2019-03-28 09:00:00 5.9 13 Este 31 Este 0 932.8 0.8 68
2019-03-28 08:00:00 3 13 Nordeste 33 Este 0 932.6 0.7 79
2019-03-28 07:00:00 1.4 10 Este 28 Este 0 932.4 0.3 79
2019-03-28 06:00:00 2.2 14 Nordeste 34 Este 0 932 -0.2 72
2019-03-28 05:00:00 2 13 Este 28 Este 0 931.9 -0.4 71
2019-03-28 04:00:00 3.3 14 Este 31 Este 0 932.1 -0.3 54
2019-03-28 03:00:00 2.7 12 Este 27 Nordeste 0 932.2 0.3 39
2019-03-28 02:00:00 2.4 8 Sudeste 22 Nordeste 0 932.3 0.6 41
2019-03-28 01:00:00 3.7 6 Este 24 Este 0 932.4 1 31
2019-03-28 00:00:00 4.8 8 Este 31 Este 0 931.9 0.3 33
2019-03-27 23:00:00 6.8 16 Este 41 Nordeste 0 931.7 1.1 30
2019-03-27 22:00:00 6.3 12 Nordeste 31 Nordeste 0 931.4 1.3 41
2019-03-27 21:00:00 7.3 6 Este 30 Nordeste 0 931.6 2.3 38
2019-03-27 20:00:00 9.6 19 Nordeste 36 Nordeste 0 930.6 1.6 33
2019-03-27 19:00:00 12 17 Nordeste 39 Norte 0 930.1 0.9 31
2019-03-27 18:00:00 14.5 20 Nordeste 49 Nordeste 0 929.3 0.1 28
2019-03-27 17:00:00 16.1 21 Nordeste 48 Nordeste 0 929 -0.4 22
2019-03-27 16:00:00 16.8 21 Nordeste 49 Nordeste 0 929.2 -0.5 17
2019-03-27 15:00:00 16.8 22 Nordeste 51 Nordeste 0 929.2 -1 14
2019-03-27 14:00:00 16.7 21 Nordeste 50 Nordeste 0 929.4 -0.8 14
2019-03-27 13:00:00 15.9 23 Este 45 Este 0 929.7 -0.6 14
2019-03-27 12:00:00 14.9 17 Este 40 Este 0 930.2 0 14
2019-03-27 11:00:00 13.3 17 Este 43 Este 0 930.2 0.2 17
2019-03-27 10:00:00 10.1 11 Nordeste 24 Nordeste 0 930.3 0.7 34
2019-03-27 09:00:00 7.1 4 Nordeste 17 Nordeste 0 930.2 1.1 46
2019-03-27 08:00:00 3.4 5 Este 23 Nordeste 0 930 1.4 59
2019-03-27 07:00:00 2.9 12 Nordeste 27 Nordeste 0 929.6 0.7 62
2019-03-27 06:00:00 2.7 12 Nordeste 34 Nordeste 0 929.1 0.1 64
2019-03-27 05:00:00 3.4 14 Nordeste 34 Nordeste 0 928.6 -0.3 63
2019-03-27 04:00:00 3.2 8 Nordeste 21 Nordeste 0 928.9 -0.1 66
2019-03-27 03:00:00 3.4 9 Nordeste 25 Nordeste 0 929 0 64
2019-03-27 02:00:00 3.5 13 Nordeste 30 Nordeste 0 928.9 -0.5 59
2019-03-27 01:00:00 3.7 17 Nordeste 45 Nordeste 0 929 0.1 54
2019-03-27 00:00:00 3.9 15 Nordeste 38 Nordeste 0 929 0.8 49
2019-03-26 23:00:00 4 11 Nordeste 36 Nordeste 0 929.4 2.1 41
2019-03-26 22:00:00 5.4 20 Nordeste 39 Nordeste 0 928.9 2 36
2019-03-26 21:00:00 6.6 21 Nordeste 46 Nordeste 0 928.2 1.8 32
2019-03-26 20:00:00 8.4 21 Nordeste 50 Nordeste 0 927.3 0.9 17
2019-03-26 19:00:00 10.7 21 Nordeste 59 Nordeste 0 926.9 0.6 16
2019-03-26 18:00:00 12.7 23 Nordeste 54 Nordeste 0 926.4 -0.5 17
2019-03-26 17:00:00 14.1 24 Nordeste 55 Nordeste 0 926.4 -0.8 17
2019-03-26 16:00:00 15.3 24 Nordeste 56 Nordeste 0 926.3 -1.1 14
2019-03-26 15:00:00 15.8 19 Este 65 Este 0 926.9 -0.9 14
2019-03-26 14:00:00 14.4 23 Nordeste 51 Nordeste 0 927.2 -0.8 17
2019-03-26 13:00:00 13.2 25 Nordeste 66 Nordeste 0 927.4 -0.4 20
2019-03-26 12:00:00 11.7 27 Nordeste 63 Nordeste 0 927.8 -0.4 21
2019-03-26 11:00:00 10 25 Nordeste 58 Nordeste 0 928 0 25
2019-03-26 10:00:00 8.2 23 Nordeste 56 Nordeste 0 927.8 0.2 32
2019-03-26 09:00:00 5.6 17 Nordeste 35 Nordeste 0 928.2 0.8 51
2019-03-26 08:00:00 3.1 13 Nordeste 39 Este 0 928 0.8 70
2019-03-26 07:00:00 2.9 16 Este 42 Este 0 927.6 0.2 74
2019-03-26 06:00:00 3.8 18 Nordeste 43 Nordeste 0 927.4 -0.6 74
2019-03-26 05:00:00 3.8 15 Nordeste 49 Este 0 927.2 -1.8 74
2019-03-26 04:00:00 4.5 20 Nordeste 53 Nordeste 0 927.4 -1.6 71
2019-03-26 03:00:00 4.5 20 Nordeste 43 Nordeste 0 928 -1.1 71
2019-03-26 02:00:00 3.1 13 Nordeste 48 Nordeste 0 929 0.1 73
2019-03-26 01:00:00 3.1 21 Nordeste 54 Nordeste 0 929 0.3 70
2019-03-26 00:00:00 3.5 23 Nordeste 57 Nordeste 0 929.1 0.8 70
2019-03-25 23:00:00 4 15 Nordeste 37 Nordeste 0 928.9 0.9 71
2019-03-25 22:00:00 4.7 13 Nordeste 39 Nordeste 0 928.7 0.8 66
2019-03-25 21:00:00 5.7 17 Nordeste 44 Nordeste 0 928.3 0.5 57
2019-03-25 20:00:00 7 19 Nordeste 47 Norte 0 928 0.1 51
2019-03-25 19:00:00 8.7 23 Nordeste 46 Nordeste 0 927.9 -0.3 52
2019-03-25 18:00:00 10.7 22 Nordeste 47 Nordeste 0 927.8 -0.7 47
2019-03-25 17:00:00 11.9 24 Nordeste 50 Nordeste 0 927.9 -1.2 45
2019-03-25 16:00:00 12.9 23 Nordeste 48 Nordeste 0 928.2 -1.6 45
2019-03-25 15:00:00 12.7 24 Nordeste 50 Nordeste 0 928.5 -1.6 43
2019-03-25 14:00:00 12.3 22 Nordeste 42 Nordeste 0 929.1 -1.3 45
2019-03-25 13:00:00 11.8 19 Nordeste 46 Nordeste 0 929.8 -0.5 46
2019-03-25 12:00:00 11 20 Nordeste 40 Nordeste 0 930.1 0.1 53
2019-03-25 11:00:00 10.4 16 Nordeste 43 Nordeste 0 930.4 0.6 53
2019-03-25 10:00:00 9 17 Nordeste 44 Nordeste 0 930.3 0.8 61
2019-03-25 09:00:00 7.3 12 Este 56 Sudeste 0 930 0.6 76
2019-03-25 08:00:00 4 9 Nordeste 24 Nordeste 0 929.8 0.7 86
2019-03-25 07:00:00 2.8 6 Este 17 Este 0 929.5 0.4 91
2019-03-25 06:00:00 2.3 4 Nordeste 19 Nordeste 0 929.4 0.1 84
2019-03-25 05:00:00 3 6 Nordeste 12 Nordeste 0 929.1 -0.4 82
2019-03-25 04:00:00 4.6 6 Nordeste 22 Nordeste 0 929.1 -0.6 75
2019-03-25 03:00:00 6 10 Nordeste 25 Nordeste 0 929.3 -0.7 69
2019-03-25 02:00:00 6.5 13 Nordeste 31 Nordeste 0 929.5 -0.7 67
2019-03-25 01:00:00 7 13 Nordeste 30 Nordeste 0 929.7 -0.4 67
2019-03-25 00:00:00 7.7 12 Nordeste 27 Nordeste 0 930 0.7 73